Time;durP1;ratioP1;P1;durP2;ratioP2;P2;SDS_P1;SDS_P2;PMS_P1;PMS_P2;Temp;Humidity;BMP_temperature;BMP_pressure;BME280_temperature;BME280_humidity;BME280_pressure;Samples;Min_cycle;Max_cycle;Signal;HPM_P1;HPM_P2
2023/10/17 00:00:45;;;;;;;4.93;3.15;;;5.20;99.90;;;;;;473970;251;27960;-71
2023/10/17 00:02:44;;;;;;;3.70;2.92;;;5.20;99.90;;;;;;475350;250;27526;-72
2023/10/17 00:04:45;;;;;;;5.32;3.20;;;5.20;99.90;;;;;;493118;240;27381;-73
2023/10/17 00:06:47;;;;;;;7.62;3.60;;;5.20;99.90;;;;;;493088;241;27374;-71
2023/10/17 00:08:50;;;;;;;3.28;2.97;;;5.10;99.90;;;;;;482295;244;27418;-73
2023/10/17 00:10:49;;;;;;;5.00;3.20;;;5.10;99.90;;;;;;475423;250;27484;-71
2023/10/17 00:12:53;;;;;;;5.15;3.65;;;5.10;99.90;;;;;;493066;241;27848;-73
2023/10/17 00:16:56;;;;;;;5.00;3.20;;;5.00;99.90;;;;;;482274;246;27447;-73
2023/10/17 00:19:04;;;;;;;4.03;3.45;;;5.00;99.90;;;;;;482276;246;27487;-72
2023/10/17 00:21:11;;;;;;;5.05;3.35;;;5.00;99.90;;;;;;474122;248;27443;-72
2023/10/17 00:23:00;;;;;;;3.40;3.10;;;5.00;99.90;;;;;;474610;250;27403;-72
2023/10/17 00:25:09;;;;;;;5.70;3.55;;;5.00;99.90;;;;;;493107;240;27909;-71
2023/10/17 00:27:03;;;;;;;5.75;3.83;;;5.00;99.90;;;;;;493054;241;27868;-72
2023/10/17 00:29:07;;;;;;;5.20;3.47;;;5.00;99.90;;;;;;476357;248;27847;-71
2023/10/17 00:31:04;;;;;;;5.60;3.90;;;5.00;99.90;;;;;;492913;241;27452;-72
2023/10/17 00:33:09;;;;;;;4.70;3.40;;;5.00;99.90;;;;;;482283;244;27392;-70
2023/10/17 00:35:13;;;;;;;5.85;4.20;;;5.00;99.90;;;;;;475453;250;27505;-72
2023/10/17 00:37:11;;;;;;;4.75;3.00;;;5.00;99.90;;;;;;492714;241;27456;-71
2023/10/17 00:39:16;;;;;;;4.53;3.47;;;4.90;99.90;;;;;;482290;244;27436;-71
2023/10/17 00:41:29;;;;;;;4.90;3.58;;;5.00;99.90;;;;;;475440;250;27508;-71
2023/10/17 00:43:19;;;;;;;4.53;2.97;;;4.90;99.90;;;;;;492191;241;27456;-72
2023/10/17 00:45:19;;;;;;;3.80;3.35;;;4.90;99.90;;;;;;476358;248;27522;-72
2023/10/17 00:47:22;;;;;;;6.28;3.87;;;4.90;99.90;;;;;;493093;240;27376;-73
2023/10/17 00:49:22;;;;;;;5.47;3.58;;;4.90;99.90;;;;;;493111;241;27790;-72
2023/10/17 00:51:23;;;;;;;8.02;3.78;;;4.90;99.90;;;;;;476343;248;28025;-71
2023/10/17 00:53:25;;;;;;;5.22;3.10;;;4.80;99.90;;;;;;493140;240;27375;-71
2023/10/17 00:55:26;;;;;;;4.20;3.80;;;4.80;99.90;;;;;;493112;241;27455;-71
2023/10/17 00:57:30;;;;;;;4.72;3.50;;;4.80;99.90;;;;;;493072;241;27395;-72
2023/10/17 00:59:31;;;;;;;5.53;3.25;;;4.80;99.90;;;;;;493107;241;27373;-72
2023/10/17 01:01:32;;;;;;;5.50;3.75;;;4.80;99.90;;;;;;482274;244;27447;-71
2023/10/17 01:03:33;;;;;;;4.07;3.67;;;4.80;99.90;;;;;;482287;246;27832;-72
2023/10/17 01:05:35;;;;;;;6.22;4.00;;;4.80;99.90;;;;;;482302;246;27902;-72
2023/10/17 01:07:39;;;;;;;5.50;3.10;;;4.80;99.90;;;;;;482276;246;27383;-71
2023/10/17 01:09:38;;;;;;;5.70;3.50;;;4.80;99.90;;;;;;475408;250;27433;-72
2023/10/17 01:11:38;;;;;;;4.68;3.62;;;4.70;99.90;;;;;;493086;240;27436;-71
2023/10/17 01:13:40;;;;;;;7.55;3.37;;;4.70;99.90;;;;;;493088;241;27353;-71
2023/10/17 01:15:41;;;;;;;8.55;3.92;;;4.70;99.90;;;;;;482295;244;27415;-71
2023/10/17 01:17:42;;;;;;;6.78;3.42;;;4.70;99.90;;;;;;482291;246;27368;-71
2023/10/17 01:19:43;;;;;;;4.45;3.58;;;4.70;99.90;;;;;;482260;246;27883;-72
2023/10/17 01:21:45;;;;;;;6.10;3.37;;;4.50;99.90;;;;;;475456;250;27921;-73
2023/10/17 01:23:46;;;;;;;3.83;3.30;;;4.50;99.90;;;;;;493108;240;27353;-71
2023/10/17 01:25:47;;;;;;;5.07;3.45;;;4.40;99.90;;;;;;493118;241;27382;-72
2023/10/17 01:27:48;;;;;;;2.97;2.67;;;4.40;99.90;;;;;;482304;244;27372;-71
2023/10/17 01:29:50;;;;;;;2.50;2.30;;;4.40;99.90;;;;;;482259;246;27403;-72
2023/10/17 01:31:51;;;;;;;6.28;3.60;;;4.20;99.90;;;;;;482282;246;27419;-71
2023/10/17 01:33:54;;;;;;;4.18;3.00;;;4.10;99.90;;;;;;482274;246;27372;-71
2023/10/17 01:35:54;;;;;;;4.05;3.08;;;4.00;99.90;;;;;;475408;250;28085;-71
2023/10/17 01:37:57;;;;;;;4.20;2.60;;;4.00;99.90;;;;;;493053;240;28577;-72
2023/10/17 01:39:59;;;;;;;4.93;2.83;;;3.80;99.90;;;;;;493058;241;27342;-72
2023/10/17 01:42:00;;;;;;;3.80;2.50;;;3.80;99.90;;;;;;482285;244;27443;-72
2023/10/17 01:44:04;;;;;;;4.10;2.92;;;3.70;99.90;;;;;;482250;246;27443;-72
2023/10/17 01:46:05;;;;;;;6.62;3.50;;;3.70;99.90;;;;;;482225;246;27443;-72
2023/10/17 01:48:10;;;;;;;4.10;3.25;;;3.70;99.90;;;;;;482223;246;27942;-71
2023/10/17 01:50:11;;;;;;;3.95;2.90;;;3.60;99.90;;;;;;475344;250;27917;-72
2023/10/17 01:52:12;;;;;;;3.33;3.00;;;3.50;99.90;;;;;;493020;240;27909;-72
2023/10/17 01:54:14;;;;;;;3.45;3.15;;;3.50;99.90;;;;;;493042;241;27954;-72
2023/10/17 01:56:20;;;;;;;4.35;3.50;;;3.60;99.90;;;;;;476324;248;27409;-71
2023/10/17 01:58:18;;;;;;;3.22;2.92;;;3.50;99.90;;;;;;492754;241;27497;-73
2023/10/17 02:02:37;;;;;;;2.85;2.53;;;3.70;99.90;;;;;;476316;250;27499;-72
2023/10/17 02:04:37;;;;;;;3.83;3.33;;;3.90;99.90;;;;;;493084;240;27448;-73
2023/10/17 02:06:39;;;;;;;3.67;3.05;;;3.90;99.90;;;;;;493072;241;27456;-71
2023/10/17 02:08:40;;;;;;;3.92;2.90;;;4.00;99.90;;;;;;493081;241;27488;-72
2023/10/17 02:10:41;;;;;;;5.45;3.10;;;4.00;99.90;;;;;;493087;241;27377;-73
2023/10/17 02:12:42;;;;;;;5.05;3.60;;;3.90;99.90;;;;;;493076;241;27452;-71
2023/10/17 02:14:44;;;;;;;3.83;3.08;;;4.00;99.90;;;;;;492977;241;27373;-72
2023/10/17 02:16:45;;;;;;;2.75;2.55;;;4.00;99.90;;;;;;476309;248;27921;-72
2023/10/17 02:18:46;;;;;;;3.75;2.87;;;3.90;99.90;;;;;;493091;240;27876;-72
2023/10/17 02:20:51;;;;;;;3.40;3.10;;;3.70;99.90;;;;;;493101;241;27994;-73
2023/10/17 02:22:52;;;;;;;2.65;2.45;;;3.70;99.90;;;;;;493071;241;27377;-72
2023/10/17 02:24:55;;;;;;;3.50;3.17;;;3.60;99.90;;;;;;474008;249;27439;-72
2023/10/17 02:27:00;;;;;;;3.08;2.60;;;3.50;99.90;;;;;;475130;250;27495;-71
2023/10/17 02:29:23;;;;;;;3.80;2.83;;;3.50;99.90;;;;;;492893;241;27369;-72
2023/10/17 02:31:00;;;;;;;2.55;2.35;;;3.50;99.90;;;;;;493526;240;28106;-73
2023/10/17 02:33:09;;;;;;;4.25;2.85;;;3.40;99.90;;;;;;482283;244;27812;-72
2023/10/17 02:35:03;;;;;;;4.35;3.25;;;3.40;99.90;;;;;;475390;250;28984;-72
2023/10/17 02:37:04;;;;;;;5.55;3.40;;;3.40;99.90;;;;;;493067;240;28036;-71
2023/10/17 02:39:06;;;;;;;3.05;2.80;;;3.40;99.90;;;;;;493113;241;27445;-72
2023/10/17 02:41:08;;;;;;;6.72;3.05;;;3.50;99.90;;;;;;493084;241;27461;-73
2023/10/17 02:43:12;;;;;;;3.85;2.85;;;3.50;99.90;;;;;;476331;248;27400;-70
2023/10/17 02:45:09;;;;;;;4.20;3.08;;;3.50;99.90;;;;;;492846;241;27377;-72
2023/10/17 02:47:15;;;;;;;2.60;2.40;;;3.50;99.90;;;;;;482264;244;27416;-71
2023/10/17 02:49:13;;;;;;;3.30;3.00;;;3.60;99.90;;;;;;474078;248;27434;-72
2023/10/17 02:53:24;;;;;;;4.95;2.80;;;3.60;99.90;;;;;;493076;240;27447;-72
2023/10/17 02:55:24;;;;;;;2.80;2.50;;;3.70;99.90;;;;;;493115;241;27393;-74
2023/10/17 02:57:27;;;;;;;2.80;2.60;;;3.70;99.90;;;;;;482296;244;27388;-73
2023/10/17 02:59:28;;;;;;;3.72;2.65;;;3.60;99.90;;;;;;475430;250;27429;-73
2023/10/17 03:01:28;;;;;;;3.10;2.80;;;3.60;99.90;;;;;;493078;241;27377;-72
2023/10/17 03:03:29;;;;;;;3.17;2.70;;;3.50;99.90;;;;;;493083;241;27870;-71
2023/10/17 03:05:30;;;;;;;5.00;2.75;;;3.50;99.90;;;;;;482324;244;27923;-72
2023/10/17 03:07:31;;;;;;;3.28;2.90;;;3.50;99.90;;;;;;482273;246;27934;-72
2023/10/17 03:09:36;;;;;;;3.45;3.00;;;3.60;99.90;;;;;;482262;246;27407;-72
2023/10/17 03:11:47;;;;;;;3.47;2.80;;;3.60;99.90;;;;;;475387;250;27415;-72
2023/10/17 03:13:43;;;;;;;3.97;3.03;;;3.50;99.90;;;;;;492397;241;27381;-71
2023/10/17 03:15:45;;;;;;;3.10;2.80;;;3.50;99.90;;;;;;473959;251;28006;-71
2023/10/17 03:17:41;;;;;;;3.37;2.90;;;3.60;99.90;;;;;;475028;250;27933;-72
2023/10/17 03:19:42;;;;;;;4.15;3.70;;;3.70;99.90;;;;;;493069;240;27808;-72
2023/10/17 03:21:43;;;;;;;6.20;2.97;;;3.80;99.90;;;;;;493060;241;27410;-71
2023/10/17 03:23:48;;;;;;;3.83;3.30;;;3.90;99.90;;;;;;482296;244;27410;-73
2023/10/17 03:25:49;;;;;;;3.22;2.65;;;4.00;99.90;;;;;;475441;250;27397;-71
2023/10/17 03:27:50;;;;;;;4.32;2.92;;;4.10;99.90;;;;;;493081;240;27832;-72
2023/10/17 03:29:51;;;;;;;4.05;3.20;;;4.10;99.90;;;;;;493106;241;27948;-72
2023/10/17 03:31:58;;;;;;;4.10;2.92;;;4.10;99.90;;;;;;493126;241;27455;-72
2023/10/17 03:33:58;;;;;;;5.00;2.70;;;4.20;99.90;;;;;;493053;241;27468;-73
2023/10/17 03:38:02;;;;;;;4.45;3.03;;;3.80;99.90;;;;;;493098;240;27329;-71
2023/10/17 03:40:19;;;;;;;3.10;2.60;;;3.80;99.90;;;;;;493096;241;27454;-71
2023/10/17 03:42:44;;;;;;;3.30;2.80;;;3.50;99.90;;;;;;493094;241;27870;-71
2023/10/17 03:44:23;;;;;;;4.45;3.00;;;3.30;99.90;;;;;;472911;251;27978;-72
2023/10/17 03:46:35;;;;;;;3.95;3.03;;;3.10;99.90;;;;;;475360;250;27857;-71
2023/10/17 03:48:29;;;;;;;3.92;2.65;;;3.00;99.90;;;;;;492593;241;27840;-72
2023/10/17 03:52:37;;;;;;;5.28;3.00;;;3.20;99.90;;;;;;467226;253;27669;-71
2023/10/17 03:54:44;;;;;;;3.35;2.60;;;3.20;99.90;;;;;;475230;250;27511;-72
2023/10/17 03:56:50;;;;;;;3.70;3.00;;;3.30;99.90;;;;;;467187;254;27537;-72
2023/10/17 03:58:52;;;;;;;3.17;2.87;;;3.30;99.90;;;;;;475236;248;27392;-71
2023/10/17 04:00:50;;;;;;;2.72;2.53;;;3.10;99.90;;;;;;467232;254;27624;-71
2023/10/17 04:02:51;;;;;;;3.35;3.05;;;2.90;99.90;;;;;;475217;250;27428;-72
2023/10/17 04:04:55;;;;;;;3.15;2.33;;;2.90;99.90;;;;;;467218;254;27559;-71
2023/10/17 04:06:57;;;;;;;3.78;2.87;;;3.00;99.90;;;;;;475208;250;27488;-72
2023/10/17 04:09:52;;;;;;;2.80;2.60;;;3.10;99.90;;;;;;467201;254;27684;-72
2023/10/17 04:13:23;;;;;;;5.97;4.70;;;3.50;99.90;;;;;;467218;254;27619;-72
2023/10/17 04:15:19;;;;;;;3.33;2.72;;;3.60;99.90;;;;;;475208;250;27455;-73
2023/10/17 04:17:25;;;;;;;2.92;2.67;;;3.50;99.90;;;;;;467213;254;27547;-71
2023/10/17 04:19:23;;;;;;;2.97;2.47;;;3.30;99.90;;;;;;475180;250;27517;-72
2023/10/17 04:21:36;;;;;;;3.30;3.00;;;3.10;99.90;;;;;;467220;254;27504;-71
2023/10/17 04:23:33;;;;;;;3.97;2.60;;;3.10;99.90;;;;;;475203;250;27504;-72
2023/10/17 04:25:34;;;;;;;2.90;2.70;;;3.10;99.90;;;;;;467218;254;27518;-72
2023/10/17 04:27:35;;;;;;;3.17;2.87;;;3.10;99.90;;;;;;475155;250;27428;-74
2023/10/17 04:29:38;;;;;;;3.33;2.53;;;3.10;99.90;;;;;;467439;251;27506;-73
2023/10/17 04:31:38;;;;;;;3.20;2.90;;;3.20;99.90;;;;;;475392;249;27520;-72
2023/10/17 04:33:41;;;;;;;3.35;3.00;;;3.30;99.90;;;;;;493106;240;27818;-73
2023/10/17 04:35:47;;;;;;;3.08;2.75;;;3.30;99.90;;;;;;493082;241;27362;-72
2023/10/17 04:37:45;;;;;;;3.25;2.50;;;3.30;99.90;;;;;;473860;251;27378;-71
2023/10/17 04:40:37;;;;;;;5.05;3.42;;;3.30;99.90;;;;;;475436;249;27494;-72
2023/10/17 04:43:55;;;;;;;4.35;3.30;;;3.20;99.90;;;;;;493090;241;27330;-72
2023/10/17 04:45:56;;;;;;;3.58;3.05;;;3.30;99.90;;;;;;476310;248;27501;-72
2023/10/17 04:48:13;;;;;;;5.55;3.60;;;3.40;99.90;;;;;;493057;240;27381;-72
2023/10/17 04:50:14;;;;;;;3.37;2.72;;;3.50;99.90;;;;;;493054;241;27377;-72
2023/10/17 04:52:21;;;;;;;5.30;3.10;;;3.80;99.90;;;;;;482277;244;27905;-72
2023/10/17 04:55:13;;;;;;;3.08;2.83;;;4.00;99.90;;;;;;474144;248;27978;-72
2023/10/17 04:56:18;;;;;;;3.60;3.22;;;3.90;99.90;;;;;;481204;246;27851;-72
2023/10/17 04:58:30;;;;;;;6.15;3.10;;;4.00;99.90;;;;;;475395;250;27465;-72
2023/10/17 05:00:51;;;;;;;4.10;3.50;;;4.00;99.90;;;;;;493078;240;27445;-71
2023/10/17 05:02:55;;;;;;;3.12;2.92;;;4.00;99.90;;;;;;493115;240;27448;-70
2023/10/17 05:09:09;;;;;;;5.45;3.30;;;4.10;99.90;;;;;;493103;241;27416;-72
2023/10/17 06:18:31;;;;;;;4.95;3.22;;;3.90;99.90;;;;;;476318;248;27402;-70
2023/10/17 06:28:13;;;;;;;6.78;2.95;;;3.90;99.90;;;;;;482257;246;27419;-72
2023/10/17 06:31:34;;;;;;;3.40;3.10;;;4.10;99.90;;;;;;493103;240;27345;-71
2023/10/17 06:33:23;;;;;;;4.10;2.87;;;4.10;99.90;;;;;;493147;240;27353;-70
2023/10/17 06:35:24;;;;;;;3.22;2.83;;;4.10;99.90;;;;;;482347;245;27373;-71
2023/10/17 06:37:30;;;;;;;3.78;3.10;;;4.10;99.90;;;;;;482330;246;27478;-73
2023/10/17 06:39:36;;;;;;;5.37;2.97;;;4.20;99.90;;;;;;475451;250;27401;-70
2023/10/17 06:41:28;;;;;;;2.83;2.62;;;4.30;99.90;;;;;;492456;241;27373;-71
2023/10/17 06:43:29;;;;;;;4.25;2.95;;;4.40;99.90;;;;;;482320;245;28069;-71
2023/10/17 06:45:36;;;;;;;3.72;3.35;;;4.40;99.90;;;;;;482297;246;27835;-71
2023/10/17 06:47:37;;;;;;;5.47;3.95;;;4.50;99.90;;;;;;475470;250;27461;-71
2023/10/17 06:51:37;;;;;;;3.30;3.00;;;4.70;99.90;;;;;;493112;241;27456;-71
2023/10/17 06:53:38;;;;;;;4.95;4.00;;;4.70;99.90;;;;;;493131;241;27479;-70
2023/10/17 06:55:43;;;;;;;4.32;3.92;;;4.80;99.90;;;;;;493158;241;27827;-71
2023/10/17 06:57:42;;;;;;;4.30;3.40;;;4.90;99.90;;;;;;476391;248;27489;-70
2023/10/17 06:59:42;;;;;;;5.78;3.95;;;5.00;99.90;;;;;;493083;241;27877;-72
2023/10/17 07:01:43;;;;;;;6.37;3.90;;;5.00;99.90;;;;;;482361;244;27384;-70
2023/10/17 07:03:45;;;;;;;5.53;4.00;;;5.10;99.90;;;;;;482332;246;27460;-72
2023/10/17 07:05:55;;;;;;;6.00;3.80;;;5.10;99.90;;;;;;482329;246;27403;-72
2023/10/17 07:07:52;;;;;;;4.90;4.05;;;5.20;99.90;;;;;;474422;248;27406;-71
2023/10/17 07:09:52;;;;;;;5.35;3.37;;;5.20;99.90;;;;;;475099;250;27549;-71
2023/10/17 07:11:52;;;;;;;3.90;3.50;;;5.20;99.90;;;;;;492924;241;27452;-72
2023/10/17 07:13:54;;;;;;;5.93;3.90;;;5.30;99.90;;;;;;476350;248;27930;-70
2023/10/17 07:15:53;;;;;;;4.50;3.78;;;5.40;99.90;;;;;;492918;241;27488;-71
2023/10/17 07:20:13;;;;;;;6.63;3.90;;;5.50;99.90;;;;;;476371;249;27397;-71
2023/10/17 07:22:15;;;;;;;4.37;3.63;;;5.50;99.90;;;;;;493133;240;27937;-71
2023/10/17 07:24:16;;;;;;;4.03;3.42;;;5.60;99.90;;;;;;493082;241;29086;-70
2023/10/17 07:28:30;;;;;;;10.50;9.02;;;5.60;99.90;;;;;;482307;244;27900;-71
2023/10/17 07:30:49;;;;;;;9.43;7.07;;;5.60;99.90;;;;;;482305;246;27364;-70
2023/10/17 07:32:49;;;;;;;9.07;6.47;;;5.70;99.90;;;;;;475418;250;27931;-71
2023/10/17 07:34:52;;;;;;;7.28;5.70;;;5.80;99.90;;;;;;493089;241;28355;-71
2023/10/17 07:37:24;;;;;;;5.50;4.60;;;5.90;99.90;;;;;;476349;248;27531;-70
2023/10/17 07:38:57;;;;;;;6.57;4.43;;;5.90;99.90;;;;;;491590;241;27330;-70
2023/10/17 07:40:59;;;;;;;8.03;4.50;;;5.90;99.90;;;;;;482313;244;27750;-72
2023/10/17 07:43:00;;;;;;;5.57;3.73;;;5.90;99.90;;;;;;475498;250;28856;-72
2023/10/17 07:45:02;;;;;;;7.67;4.23;;;5.90;99.90;;;;;;493194;240;28241;-70
2023/10/17 07:47:09;;;;;;;4.32;3.90;;;6.00;99.90;;;;;;493165;241;28335;-72
2023/10/17 07:49:10;;;;;;;8.20;4.30;;;6.00;99.90;;;;;;482347;244;27411;-70
2023/10/17 07:51:14;;;;;;;8.40;4.30;;;6.00;99.90;;;;;;475495;250;27874;-71
2023/10/17 07:53:19;;;;;;;4.17;3.33;;;6.10;99.90;;;;;;492997;240;27969;-71
2023/10/17 07:57:27;;;;;;;6.13;4.23;;;6.10;99.90;;;;;;467226;253;28110;-71
2023/10/17 07:59:34;;;;;;;4.00;3.70;;;6.20;99.90;;;;;;475236;250;27920;-71
2023/10/17 08:01:50;;;;;;;5.47;4.13;;;6.20;99.90;;;;;;467261;254;28015;-70
2023/10/17 08:03:57;;;;;;;7.63;4.40;;;6.30;99.90;;;;;;475290;248;27491;-70
2023/10/17 08:06:12;;;;;;;6.67;4.40;;;6.30;99.90;;;;;;467067;254;28904;-72
2023/10/17 08:08:33;;;;;;;7.10;4.13;;;6.30;99.90;;;;;;475593;248;27936;-71
2023/10/17 08:10:10;;;;;;;6.30;4.03;;;6.20;99.90;;;;;;465740;254;28371;-70
2023/10/17 08:12:06;;;;;;;11.53;4.50;;;6.30;99.90;;;;;;475206;250;28418;-71
2023/10/17 08:14:09;;;;;;;9.07;4.32;;;6.30;99.90;;;;;;467244;254;27926;-72
2023/10/17 08:16:10;;;;;;;7.00;4.20;;;6.30;99.90;;;;;;475210;250;27400;-70
2023/10/17 08:18:15;;;;;;;6.13;4.57;;;6.40;99.90;;;;;;467283;254;28962;-71
2023/10/17 08:22:17;;;;;;;5.10;3.77;;;6.40;99.90;;;;;;467240;254;27796;-70
2023/10/17 08:26:29;;;;;;;7.70;3.93;;;6.60;99.90;;;;;;464402;254;28500;-71
2023/10/17 08:28:34;;;;;;;4.77;3.93;;;6.60;99.90;;;;;;475209;250;27940;-70
2023/10/17 08:30:38;;;;;;;4.40;3.70;;;6.60;99.90;;;;;;467215;254;28002;-70
2023/10/17 08:32:38;;;;;;;6.47;4.40;;;6.70;99.90;;;;;;475249;250;27959;-70
2023/10/17 08:34:42;;;;;;;8.40;5.30;;;6.60;99.90;;;;;;472254;251;27958;-70
2023/10/17 08:36:47;;;;;;;5.80;4.10;;;6.70;99.90;;;;;;475316;250;27947;-70
2023/10/17 08:38:47;;;;;;;7.33;4.77;;;6.70;99.90;;;;;;492924;241;27774;-71
2023/10/17 08:40:49;;;;;;;5.47;4.13;;;6.80;99.90;;;;;;476345;248;27877;-70
2023/10/17 08:42:49;;;;;;;7.03;5.87;;;6.80;99.90;;;;;;492919;241;28623;-70
2023/10/17 08:44:50;;;;;;;6.87;5.17;;;6.80;99.90;;;;;;476297;248;29031;-71
2023/10/17 08:46:50;;;;;;;4.97;4.40;;;6.80;99.90;;;;;;492956;241;28234;-70
2023/10/17 08:48:56;;;;;;;6.70;4.87;;;6.80;99.90;;;;;;482367;244;28383;-71
2023/10/17 08:50:53;;;;;;;9.33;5.60;;;6.80;99.90;;;;;;475439;250;28063;-70
2023/10/17 08:52:53;;;;;;;7.90;4.77;;;6.80;99.90;;;;;;493076;240;27961;-71
2023/10/17 08:54:55;;;;;;;7.90;4.90;;;6.90;99.90;;;;;;493099;241;27841;-70
2023/10/17 08:56:59;;;;;;;7.87;5.50;;;7.00;99.90;;;;;;493110;241;27465;-70
2023/10/17 08:59:03;;;;;;;8.30;5.27;;;7.10;99.90;;;;;;476337;248;27432;-72
2023/10/17 09:01:10;;;;;;;11.23;5.40;;;7.10;99.90;;;;;;492751;241;27907;-70
2023/10/17 09:03:03;;;;;;;11.37;5.73;;;7.10;99.90;;;;;;493103;241;27473;-71
2023/10/17 09:05:06;;;;;;;10.93;5.63;;;7.10;99.90;;;;;;482309;244;27710;-70
2023/10/17 09:07:08;;;;;;;11.67;6.13;;;7.10;99.90;;;;;;475461;250;27978;-72
2023/10/17 09:11:08;;;;;;;9.43;5.90;;;7.30;99.90;;;;;;482269;244;28088;-70
2023/10/17 09:13:52;;;;;;;8.33;5.37;;;7.40;99.90;;;;;;475465;250;27674;-70
2023/10/17 09:15:17;;;;;;;7.63;5.80;;;7.40;99.90;;;;;;491671;241;27829;-71
2023/10/17 09:17:19;;;;;;;10.20;6.03;;;7.40;99.90;;;;;;476397;248;27580;-73
2023/10/17 09:19:20;;;;;;;10.20;6.30;;;7.50;99.90;;;;;;493005;241;27780;-70
2023/10/17 09:21:23;;;;;;;10.47;6.70;;;7.40;99.90;;;;;;476363;248;27796;-71
2023/10/17 09:23:21;;;;;;;6.60;5.47;;;7.40;99.90;;;;;;493008;241;27738;-70
2023/10/17 09:25:23;;;;;;;6.70;5.50;;;7.50;99.90;;;;;;482282;244;28047;-70
2023/10/17 09:27:23;;;;;;;7.90;5.70;;;7.50;99.90;;;;;;475512;250;27772;-71
2023/10/17 09:29:27;;;;;;;12.53;5.77;;;7.60;99.90;;;;;;493132;240;27625;-70
2023/10/17 09:31:26;;;;;;;11.43;6.73;;;7.70;99.90;;;;;;493123;241;27830;-71
2023/10/17 09:33:30;;;;;;;8.50;5.83;;;7.70;99.90;;;;;;476350;248;27827;-70
2023/10/17 09:35:29;;;;;;;10.83;6.70;;;7.80;99.90;;;;;;492937;241;28328;-71
2023/10/17 09:37:30;;;;;;;9.10;5.83;;;7.90;99.90;;;;;;493037;241;28323;-71
2023/10/17 09:39:31;;;;;;;8.43;6.00;;;7.90;99.90;;;;;;482242;244;28439;-71
2023/10/17 09:41:32;;;;;;;9.20;6.90;;;7.80;99.90;;;;;;482177;246;28385;-70
2023/10/17 09:43:34;;;;;;;10.57;6.70;;;7.80;99.90;;;;;;482238;246;28070;-70
2023/10/17 09:45:35;;;;;;;7.97;5.70;;;7.90;99.90;;;;;;475408;250;27887;-70
2023/10/17 09:47:37;;;;;;;9.30;6.47;;;8.00;99.90;;;;;;493064;240;27877;-71
2023/10/17 09:49:37;;;;;;;8.50;5.53;;;8.00;99.90;;;;;;493028;241;28006;-71
2023/10/17 09:51:40;;;;;;;9.80;6.60;;;8.10;99.90;;;;;;482248;244;27911;-71
2023/10/17 09:53:40;;;;;;;9.27;6.10;;;8.10;99.90;;;;;;475412;250;27940;-71
2023/10/17 09:55:41;;;;;;;9.80;5.60;;;8.10;99.90;;;;;;493128;240;27970;-70
2023/10/17 09:57:43;;;;;;;9.63;6.20;;;8.30;99.90;;;;;;493119;241;27473;-71
2023/10/17 09:59:44;;;;;;;7.77;6.40;;;8.30;99.90;;;;;;493094;241;27471;-70
2023/10/17 10:01:46;;;;;;;10.13;6.10;;;8.30;99.90;;;;;;476351;248;28048;-71
2023/10/17 10:03:46;;;;;;;11.83;6.00;;;8.30;99.90;;;;;;493081;241;27848;-72
2023/10/17 10:05:47;;;;;;;8.90;5.90;;;8.40;99.90;;;;;;476373;248;27868;-71
2023/10/17 10:07:48;;;;;;;17.60;8.23;;;8.50;99.90;;;;;;493126;240;27887;-70
2023/10/17 10:09:50;;;;;;;12.97;6.57;;;8.50;99.90;;;;;;493160;241;29260;-71
2023/10/17 10:11:55;;;;;;;12.93;6.97;;;8.50;99.90;;;;;;482313;245;28371;-70
2023/10/17 10:13:55;;;;;;;10.37;6.27;;;8.60;99.90;;;;;;475492;250;27924;-70
2023/10/17 10:15:58;;;;;;;7.57;5.37;;;8.60;99.90;;;;;;493112;240;27846;-71
2023/10/17 10:17:58;;;;;;;11.80;6.17;;;8.80;99.90;;;;;;493088;241;27885;-70
2023/10/17 10:19:59;;;;;;;10.57;6.40;;;8.80;99.90;;;;;;482356;244;27840;-70
2023/10/17 10:22:00;;;;;;;10.63;6.00;;;8.80;99.90;;;;;;482339;246;27888;-72
2023/10/17 10:24:03;;;;;;;9.03;6.10;;;8.70;99.90;;;;;;482294;246;27896;-70
2023/10/17 10:26:03;;;;;;;8.80;5.07;;;8.70;99.90;;;;;;475445;250;27988;-70
2023/10/17 10:28:04;;;;;;;7.30;5.33;;;8.50;99.90;;;;;;493147;240;27729;-72
2023/10/17 10:30:05;;;;;;;8.80;6.03;;;8.70;99.90;;;;;;493115;241;27912;-71
2023/10/17 10:32:06;;;;;;;7.53;5.70;;;8.70;99.90;;;;;;482358;244;27862;-71
2023/10/17 10:34:08;;;;;;;7.27;5.20;;;8.60;99.90;;;;;;482313;246;28336;-70
2023/10/17 10:36:10;;;;;;;8.20;5.47;;;8.70;99.90;;;;;;482313;246;28437;-71
2023/10/17 10:38:11;;;;;;;9.70;6.10;;;8.90;99.90;;;;;;475480;250;28411;-71
2023/10/17 10:40:36;;;;;;;6.67;5.30;;;8.80;99.90;;;;;;493154;240;28340;-71
2023/10/17 10:42:13;;;;;;;7.93;6.30;;;8.70;99.90;;;;;;493581;240;28444;-71
2023/10/17 10:44:14;;;;;;;8.83;5.60;;;8.80;99.90;;;;;;482315;244;28146;-70
2023/10/17 10:46:15;;;;;;;8.03;5.37;;;8.70;99.90;;;;;;475341;250;27837;-71
2023/10/17 10:48:17;;;;;;;10.73;6.60;;;8.80;99.90;;;;;;493126;240;27846;-72
2023/10/17 10:50:18;;;;;;;11.43;6.77;;;8.80;99.90;;;;;;493107;241;27943;-70
2023/10/17 10:52:19;;;;;;;8.00;5.83;;;8.70;99.90;;;;;;482352;244;27717;-71
2023/10/17 10:54:21;;;;;;;10.53;6.73;;;8.80;99.90;;;;;;482277;246;27980;-70
2023/10/17 10:56:22;;;;;;;9.73;6.20;;;8.90;99.90;;;;;;475456;250;27919;-71
2023/10/17 10:58:23;;;;;;;7.40;5.00;;;8.90;99.90;;;;;;493096;240;27953;-71
2023/10/17 11:00:24;;;;;;;10.67;5.63;;;8.90;99.90;;;;;;493011;241;27769;-72
2023/10/17 11:02:25;;;;;;;8.33;4.70;;;8.90;99.90;;;;;;482301;244;28108;-71
2023/10/17 11:04:26;;;;;;;8.70;5.43;;;9.10;99.90;;;;;;482285;246;27950;-71
2023/10/17 11:06:28;;;;;;;9.87;5.87;;;9.20;99.90;;;;;;482336;246;27922;-71
2023/10/17 11:08:29;;;;;;;7.33;5.37;;;9.10;99.90;;;;;;482298;246;28390;-71
2023/10/17 11:10:31;;;;;;;7.77;6.17;;;9.10;99.90;;;;;;482293;246;28363;-71
2023/10/17 11:12:31;;;;;;;9.33;5.20;;;9.00;99.90;;;;;;475453;250;28377;-70
2023/10/17 11:14:33;;;;;;;11.07;6.70;;;9.10;99.90;;;;;;493109;240;28307;-71
2023/10/17 11:16:34;;;;;;;8.47;6.60;;;9.00;99.90;;;;;;493089;241;27733;-70
2023/10/17 11:18:35;;;;;;;8.80;6.03;;;9.00;99.90;;;;;;482287;244;27974;-71
2023/10/17 11:20:40;;;;;;;8.57;6.00;;;9.10;99.90;;;;;;482156;246;27847;-70
2023/10/17 11:22:40;;;;;;;9.87;6.03;;;9.00;99.90;;;;;;475430;250;27646;-71
2023/10/17 11:24:44;;;;;;;7.57;5.47;;;9.00;99.90;;;;;;493009;241;28052;-72
2023/10/17 11:26:40;;;;;;;8.33;5.83;;;9.30;99.90;;;;;;476210;248;27630;-71
2023/10/17 11:28:51;;;;;;;7.37;6.17;;;9.30;99.90;;;;;;492982;240;27799;-71
2023/10/17 11:30:50;;;;;;;9.17;6.47;;;9.20;99.90;;;;;;493047;241;28515;-73
2023/10/17 11:32:50;;;;;;;10.60;6.93;;;9.20;99.90;;;;;;476296;248;28412;-70
2023/10/17 11:34:51;;;;;;;11.13;5.93;;;9.20;99.90;;;;;;493109;240;28402;-71
2023/10/17 11:37:02;;;;;;;6.90;5.87;;;9.30;99.90;;;;;;493151;241;27695;-71
2023/10/17 11:38:57;;;;;;;6.27;4.70;;;9.40;99.90;;;;;;476339;248;27763;-71
2023/10/17 11:40:58;;;;;;;8.83;5.97;;;9.40;99.90;;;;;;493092;240;27918;-71
2023/10/17 11:42:59;;;;;;;8.20;6.50;;;9.40;99.90;;;;;;493103;241;27878;-71
2023/10/17 11:45:17;;;;;;;10.13;5.87;;;9.30;99.90;;;;;;482322;244;27917;-70
2023/10/17 11:47:02;;;;;;;8.30;5.90;;;9.40;99.90;;;;;;475398;250;28028;-71
2023/10/17 11:49:03;;;;;;;9.50;5.47;;;9.40;99.90;;;;;;492979;241;27820;-71
2023/10/17 11:51:05;;;;;;;7.67;5.50;;;9.60;99.90;;;;;;482326;244;28187;-72
2023/10/17 11:53:05;;;;;;;7.70;5.83;;;9.60;99.90;;;;;;475485;250;28025;-72
2023/10/17 11:55:17;;;;;;;7.20;5.20;;;9.60;99.90;;;;;;493123;240;27810;-70
2023/10/17 11:57:08;;;;;;;8.80;5.00;;;9.70;99.90;;;;;;493290;240;27812;-70
2023/10/17 11:59:17;;;;;;;6.70;5.00;;;9.80;99.90;;;;;;493116;241;28137;-70
2023/10/17 12:01:10;;;;;;;8.63;5.60;;;10.00;99.90;;;;;;473893;251;28613;-70
2023/10/17 12:03:11;;;;;;;7.03;5.30;;;10.10;99.90;;;;;;475497;249;28549;-71
2023/10/17 12:05:19;;;;;;;7.00;4.93;;;10.00;99.90;;;;;;493115;240;28617;-71
2023/10/17 12:07:20;;;;;;;8.23;5.20;;;10.10;99.90;;;;;;493129;241;28156;-71
2023/10/17 12:11:24;;;;;;;6.10;4.40;;;10.30;99.90;;;;;;493118;241;28169;-70
2023/10/17 12:13:26;;;;;;;6.10;4.60;;;10.40;99.90;;;;;;493133;241;28749;-71
2023/10/17 12:15:25;;;;;;;4.83;4.10;;;10.50;99.90;;;;;;493114;241;29477;-70
2023/10/17 12:17:26;;;;;;;5.63;4.50;;;10.60;99.90;;;;;;482289;244;28591;-71
2023/10/17 12:19:27;;;;;;;6.07;3.80;;;10.70;99.90;;;;;;482327;246;28209;-71
2023/10/17 12:21:29;;;;;;;6.23;4.20;;;10.70;99.90;;;;;;482318;246;28597;-71
2023/10/17 12:23:30;;;;;;;6.50;3.60;;;10.60;99.90;;;;;;482296;246;28078;-71
2023/10/17 12:25:32;;;;;;;7.73;7.03;;;10.70;99.90;;;;;;482303;246;28223;-71
2023/10/17 12:27:32;;;;;;;9.50;8.53;;;10.80;99.90;;;;;;475428;250;28022;-71
2023/10/17 12:29:34;;;;;;;6.43;5.13;;;10.80;99.90;;;;;;493120;240;28392;-72
2023/10/17 12:31:35;;;;;;;4.80;4.20;;;10.80;99.90;;;;;;493120;241;28240;-71
2023/10/17 12:33:36;;;;;;;6.67;4.97;;;10.90;99.90;;;;;;482296;244;28488;-71